RoSS Sea — WDE3122 — position and weather

sailwx.info

Track history (hours):
 
Tides and Currents Weather Stations Pressure Air Temp Water Temp Dewpoint Dewpoint Depression Visibility Wind Speed Wind Dir Waves Ship Positions

RoSS Sea

Owner: Kirby Inland Marine, LP, Houston, TX. More information available from US FCC via Universal Licensing System and Coast Guard Vessel Documentation Center.

Last reported at 2017-Jun-28 02:55 UTC. Time now 2017-Jun-28 07:17 UTC.
Position N 39°11' W 076°28'.

Length 30 m; draft 5 m.

Type: Towing. MMSI: 367334360.

Date/timePositionNaut miles runAvg speedWind from/ knotsBaromVisibWave heightAir tempDewpointWater temp
2017-Jun-28 02:55N 39°11' W 076°28'3 8.1
2017-Jun-28 02:31N 39°13' W 076°32'3 5.8
2017-Jun-28 02:00N 39°15' W 076°34'0 0.0
2017-Jun-28 01:28N 39°15' W 076°34'0 0.1
2017-Jun-28 00:55N 39°15' W 076°34'0 0.0
2017-Jun-28 00:25N 39°15' W 076°34'0 0.0
2017-Jun-27 23:55N 39°15' W 076°34'0 0.0
2017-Jun-27 23:29N 39°15' W 076°34'0 0.0
2017-Jun-27 16:18N 39°15' W 076°34'0 0.3
2017-Jun-27 16:00N 39°15' W 076°34'1 2.2
2017-Jun-27 15:30N 39°14' W 076°33'4 7.9
2017-Jun-27 15:00N 39°12' W 076°29'11 8.3
2017-Jun-27 13:42N 39°02' W 076°23'2 9.3
2017-Jun-27 13:26N 38°60' W 076°23'4 9.4
2017-Jun-27 13:00N 38°56' W 076°24'5 9.3
2017-Jun-27 12:27N 38°51' W 076°26'41 9.0
2017-Jun-27 07:54N 38°11' W 076°17'7 9.3
2017-Jun-27 07:10N 38°04' W 076°15'2 9.2
2017-Jun-27 06:58N 38°02' W 076°16'4 7.9
2017-Jun-27 06:30N 38°01' W 076°20'5 8.0
2017-Jun-27 05:56N 38°03' W 076°25'4 8.3
2017-Jun-27 05:25N 38°06' W 076°29'7 0.3
2017-Jun-26 05:49N 38°11' W 076°36'3 6.7
2017-Jun-26 05:23N 38°09' W 076°33'3 7.0
2017-Jun-26 04:59N 38°07' W 076°31'4 6.8
2017-Jun-26 04:28N 38°05' W 076°27'3 6.5
2017-Jun-26 03:58N 38°03' W 076°24'2 4.8
2017-Jun-26 03:30N 38°01' W 076°22'1 2.9
2017-Jun-26 03:00N 38°00' W 076°21'2 2.5
2017-Jun-26 02:21N 37°59' W 076°19'1 2.6
2017-Jun-26 01:59N 37°59' W 076°18'62 1.2
2017-Jun-24 00:15N 36°57' W 076°24'5 7.4
2017-Jun-23 23:33N 36°53' W 076°20'0 9.0
2017-Jun-23 23:30N 36°53' W 076°20'3 6.9
2017-Jun-23 23:01N 36°50' W 076°17'1 1.1
2017-Jun-23 22:31N 36°50' W 076°16'0 0.0
2017-Jun-23 14:42N 36°50' W 076°16'0 0.0
2017-Jun-23 14:00N 36°50' W 076°16'0 0.0
2017-Jun-23 12:15N 36°50' W 076°16'0 0.0
2017-Jun-23 11:33N 36°50' W 076°16'0 0.0
2017-Jun-23 11:30N 36°50' W 076°16'0 0.0
2017-Jun-23 11:00N 36°50' W 076°16'0 0.0
2017-Jun-23 10:24N 36°50' W 076°16'0 0.0
2017-Jun-23 09:57N 36°50' W 076°16'0 0.0
2017-Jun-23 09:30N 36°50' W 076°16'0 0.0
2017-Jun-23 09:00N 36°50' W 076°16'0 0.0
2017-Jun-23 08:27N 36°50' W 076°16'0 0.0
2017-Jun-23 05:00N 36°50' W 076°16'0 0.0
2017-Jun-23 04:27N 36°50' W 076°16'0 0.0
2017-Jun-23 03:57N 36°50' W 076°16'0 0.0
2017-Jun-23 03:27N 36°50' W 076°16'0 0.0
2017-Jun-23 03:00N 36°50' W 076°16'0 0.0
2017-Jun-23 02:30N 36°50' W 076°16'0 0.0
2017-Jun-23 02:00N 36°50' W 076°16'0 0.0
2017-Jun-23 01:30N 36°50' W 076°16'0 0.0
2017-Jun-23 01:00N 36°50' W 076°16'0 0.0
2017-Jun-23 00:27N 36°50' W 076°16'0 0.0
2017-Jun-23 00:00N 36°50' W 076°16'0 0.0
2017-Jun-22 23:27N 36°50' W 076°16'0 0.0
2017-Jun-22 23:00N 36°50' W 076°16'0 0.0
2017-Jun-22 22:30N 36°50' W 076°16'0 0.0
2017-Jun-22 21:00N 36°50' W 076°16'0 0.0
2017-Jun-22 20:12N 36°50' W 076°16'0 0.0
2017-Jun-22 19:39N 36°50' W 076°16'0 0.0
2017-Jun-22 11:36N 36°50' W 076°16'0 0.0
2017-Jun-22 11:27N 36°50' W 076°16'0 0.0
2017-Jun-22 10:51N 36°50' W 076°16'0 0.0
2017-Jun-22 10:30N 36°50' W 076°16'0 0.0
2017-Jun-22 10:00N 36°50' W 076°16'0 0.0
2017-Jun-22 09:30N 36°50' W 076°16'0 0.0
2017-Jun-22 09:00N 36°50' W 076°16'0 0.0
2017-Jun-22 08:30N 36°50' W 076°16'0 0.0
2017-Jun-22 08:00N 36°50' W 076°16'0 0.0
2017-Jun-22 07:30N 36°50' W 076°16'0 0.0
2017-Jun-22 07:00N 36°50' W 076°16'0 0.0
2017-Jun-22 06:30N 36°50' W 076°16'0 0.0
2017-Jun-22 06:00N 36°50' W 076°16'0 0.0
2017-Jun-22 05:30N 36°50' W 076°16'0 0.0
2017-Jun-22 05:00N 36°50' W 076°16'0 0.0
2017-Jun-22 04:27N 36°50' W 076°16'0 0.0
2017-Jun-22 03:09N 36°50' W 076°16'0 0.0
2017-Jun-22 02:54N 36°50' W 076°16'0 0.0
2017-Jun-22 02:27N 36°50' W 076°16'0 0.0
2017-Jun-22 01:57N 36°50' W 076°16'0 0.0
2017-Jun-21 23:34N 36°50' W 076°16'0 0.0
2017-Jun-21 22:52N 36°50' W 076°16'0 0.0
2017-Jun-21 22:16N 36°50' W 076°16'0 0.0
2017-Jun-21 21:44N 36°50' W 076°16'0 0.0
2017-Jun-21 21:22N 36°50' W 076°16'0 0.0
2017-Jun-21 20:55N 36°50' W 076°16'0 0.0
2017-Jun-21 20:29N 36°50' W 076°16'0 0.0
2017-Jun-21 20:00N 36°50' W 076°16'0 0.1
2017-Jun-21 19:30N 36°50' W 076°16'0 0.1
2017-Jun-21 19:00N 36°50' W 076°16'1 2.8
2017-Jun-21 18:30N 36°51' W 076°18'  
Track history (hours):
 
Tides and Currents Weather Stations Pressure Air Temp Water Temp Dewpoint Dewpoint Depression Visibility Wind Speed Wind Dir Waves Ship Positions

RoSS Sea

Owner: Kirby Inland Marine, LP, Houston, TX. More information available from US FCC via Universal Licensing System and Coast Guard Vessel Documentation Center.

Last reported at 2017-Jun-28 02:55 UTC. Time now 2017-Jun-28 07:17 UTC.
Position N 39°11' W 076°28'.

Length 30 m; draft 5 m.

Type: Towing. MMSI: 367334360.

Date/timePositionNaut miles runAvg speedWind from/ knotsBaromVisibWave heightAir tempDewpointWater temp
2017-Jun-28 02:55N 39°11' W 076°28'3 8.1
2017-Jun-28 02:31N 39°13' W 076°32'3 5.8
2017-Jun-28 02:00N 39°15' W 076°34'0 0.0
2017-Jun-28 01:28N 39°15' W 076°34'0 0.1
2017-Jun-28 00:55N 39°15' W 076°34'0 0.0
2017-Jun-28 00:25N 39°15' W 076°34'0 0.0
2017-Jun-27 23:55N 39°15' W 076°34'0 0.0
2017-Jun-27 23:29N 39°15' W 076°34'0 0.0
2017-Jun-27 16:18N 39°15' W 076°34'0 0.3
2017-Jun-27 16:00N 39°15' W 076°34'1 2.2
2017-Jun-27 15:30N 39°14' W 076°33'4 7.9
2017-Jun-27 15:00N 39°12' W 076°29'11 8.3
2017-Jun-27 13:42N 39°02' W 076°23'2 9.3
2017-Jun-27 13:26N 38°60' W 076°23'4 9.4
2017-Jun-27 13:00N 38°56' W 076°24'5 9.3
2017-Jun-27 12:27N 38°51' W 076°26'41 9.0
2017-Jun-27 07:54N 38°11' W 076°17'7 9.3
2017-Jun-27 07:10N 38°04' W 076°15'2 9.2
2017-Jun-27 06:58N 38°02' W 076°16'4 7.9
2017-Jun-27 06:30N 38°01' W 076°20'5 8.0
2017-Jun-27 05:56N 38°03' W 076°25'4 8.3
2017-Jun-27 05:25N 38°06' W 076°29'7 0.3
2017-Jun-26 05:49N 38°11' W 076°36'3 6.7
2017-Jun-26 05:23N 38°09' W 076°33'3 7.0
2017-Jun-26 04:59N 38°07' W 076°31'4 6.8
2017-Jun-26 04:28N 38°05' W 076°27'3 6.5
2017-Jun-26 03:58N 38°03' W 076°24'2 4.8
2017-Jun-26 03:30N 38°01' W 076°22'1 2.9
2017-Jun-26 03:00N 38°00' W 076°21'2 2.5
2017-Jun-26 02:21N 37°59' W 076°19'1 2.6
2017-Jun-26 01:59N 37°59' W 076°18'62 1.2
2017-Jun-24 00:15N 36°57' W 076°24'5 7.4
2017-Jun-23 23:33N 36°53' W 076°20'0 9.0
2017-Jun-23 23:30N 36°53' W 076°20'3 6.9
2017-Jun-23 23:01N 36°50' W 076°17'1 1.1
2017-Jun-23 22:31N 36°50' W 076°16'0 0.0
2017-Jun-23 14:42N 36°50' W 076°16'0 0.0
2017-Jun-23 14:00N 36°50' W 076°16'0 0.0
2017-Jun-23 12:15N 36°50' W 076°16'0 0.0
2017-Jun-23 11:33N 36°50' W 076°16'0 0.0
2017-Jun-23 11:30N 36°50' W 076°16'0 0.0
2017-Jun-23 11:00N 36°50' W 076°16'0 0.0
2017-Jun-23 10:24N 36°50' W 076°16'0 0.0
2017-Jun-23 09:57N 36°50' W 076°16'0 0.0
2017-Jun-23 09:30N 36°50' W 076°16'0 0.0
2017-Jun-23 09:00N 36°50' W 076°16'0 0.0
2017-Jun-23 08:27N 36°50' W 076°16'0 0.0
2017-Jun-23 05:00N 36°50' W 076°16'0 0.0
2017-Jun-23 04:27N 36°50' W 076°16'0 0.0
2017-Jun-23 03:57N 36°50' W 076°16'0 0.0
2017-Jun-23 03:27N 36°50' W 076°16'0 0.0
2017-Jun-23 03:00N 36°50' W 076°16'0 0.0
2017-Jun-23 02:30N 36°50' W 076°16'0 0.0
2017-Jun-23 02:00N 36°50' W 076°16'0 0.0
2017-Jun-23 01:30N 36°50' W 076°16'0 0.0
2017-Jun-23 01:00N 36°50' W 076°16'0 0.0
2017-Jun-23 00:27N 36°50' W 076°16'0 0.0
2017-Jun-23 00:00N 36°50' W 076°16'0 0.0
2017-Jun-22 23:27N 36°50' W 076°16'0 0.0
2017-Jun-22 23:00N 36°50' W 076°16'0 0.0
2017-Jun-22 22:30N 36°50' W 076°16'0 0.0
2017-Jun-22 21:00N 36°50' W 076°16'0 0.0
2017-Jun-22 20:12N 36°50' W 076°16'0 0.0
2017-Jun-22 19:39N 36°50' W 076°16'0 0.0
2017-Jun-22 11:36N 36°50' W 076°16'0 0.0
2017-Jun-22 11:27N 36°50' W 076°16'0 0.0
2017-Jun-22 10:51N 36°50' W 076°16'0 0.0
2017-Jun-22 10:30N 36°50' W 076°16'0 0.0
2017-Jun-22 10:00N 36°50' W 076°16'0 0.0
2017-Jun-22 09:30N 36°50' W 076°16'0 0.0
2017-Jun-22 09:00N 36°50' W 076°16'0 0.0
2017-Jun-22 08:30N 36°50' W 076°16'0 0.0
2017-Jun-22 08:00N 36°50' W 076°16'0 0.0
2017-Jun-22 07:30N 36°50' W 076°16'0 0.0
2017-Jun-22 07:00N 36°50' W 076°16'0 0.0
2017-Jun-22 06:30N 36°50' W 076°16'0 0.0
2017-Jun-22 06:00N 36°50' W 076°16'0 0.0
2017-Jun-22 05:30N 36°50' W 076°16'0 0.0
2017-Jun-22 05:00N 36°50' W 076°16'0 0.0
2017-Jun-22 04:27N 36°50' W 076°16'0 0.0
2017-Jun-22 03:09N 36°50' W 076°16'0 0.0
2017-Jun-22 02:54N 36°50' W 076°16'0 0.0
2017-Jun-22 02:27N 36°50' W 076°16'0 0.0
2017-Jun-22 01:57N 36°50' W 076°16'0 0.0
2017-Jun-21 23:34N 36°50' W 076°16'0 0.0
2017-Jun-21 22:52N 36°50' W 076°16'0 0.0
2017-Jun-21 22:16N 36°50' W 076°16'0 0.0
2017-Jun-21 21:44N 36°50' W 076°16'0 0.0
2017-Jun-21 21:22N 36°50' W 076°16'0 0.0
2017-Jun-21 20:55N 36°50' W 076°16'0 0.0
2017-Jun-21 20:29N 36°50' W 076°16'0 0.0
2017-Jun-21 20:00N 36°50' W 076°16'0 0.1
2017-Jun-21 19:30N 36°50' W 076°16'0 0.1
2017-Jun-21 19:00N 36°50' W 076°16'1 2.8
2017-Jun-21 18:30N 36°51' W 076°18'  

Dump ship's entire track history